createdAt,value
2022-08-07T00:00:40.457Z,58.49
2022-08-07T00:01:43.896Z,58.29
2022-08-07T00:02:44.302Z,58.39
2022-08-07T00:03:40.684Z,57.88
2022-08-07T00:04:40.738Z,58.90
2022-08-07T00:05:39.784Z,60.44
2022-08-07T00:06:45.520Z,61.39
2022-08-07T00:07:41.734Z,61.49
2022-08-07T00:08:40.469Z,62.02
2022-08-07T00:09:40.259Z,62.23
2022-08-07T00:10:48.000Z,62.56
2022-08-07T00:11:53.951Z,61.95
2022-08-07T00:12:43.632Z,62.05
2022-08-07T00:13:44.854Z,62.36
2022-08-07T00:14:40.454Z,63.07
2022-08-07T00:15:46.702Z,62.66
2022-08-07T00:16:40.533Z,62.97
2022-08-07T00:17:39.612Z,62.97
2022-08-07T00:18:39.685Z,62.97
2022-08-07T00:20:01.553Z,63.28
2022-08-07T00:20:40.896Z,63.58
2022-08-07T00:21:56.634Z,63.37
2022-08-07T00:22:42.240Z,63.51
2022-08-07T00:23:41.092Z,62.59
2022-08-07T00:24:40.166Z,62.18
2022-08-07T00:25:41.524Z,62.29
2022-08-07T00:26:59.323Z,61.98
2022-08-07T00:27:52.609Z,62.29
2022-08-07T00:28:45.572Z,62.18
2022-08-07T00:29:40.507Z,61.98
2022-08-07T00:30:39.563Z,61.98
2022-08-07T00:31:41.470Z,62.08
2022-08-07T00:32:39.824Z,62.29
2022-08-07T00:33:39.834Z,61.68
2022-08-07T00:34:39.927Z,61.78
2022-08-07T00:35:40.002Z,62.56
2022-08-07T00:36:42.994Z,62.26
2022-08-07T00:37:47.790Z,62.46
2022-08-07T00:38:41.239Z,62.26
2022-08-07T00:39:44.818Z,61.95
2022-08-07T00:40:40.869Z,61.95
2022-08-07T00:41:45.324Z,61.44
2022-08-07T00:42:40.546Z,62.26
2022-08-07T00:43:58.910Z,62.66
2022-08-07T00:44:41.655Z,62.87
2022-08-07T00:45:39.774Z,62.56
2022-08-07T00:46:39.919Z,62.76
2022-08-07T00:48:10.143Z,62.56
2022-08-07T00:48:42.237Z,62.26
2022-08-07T00:50:20.671Z,61.95
2022-08-07T00:50:50.242Z,61.95
2022-08-07T00:51:58.216Z,62.05
2022-08-07T00:52:40.317Z,61.95
2022-08-07T00:53:50.435Z,61.75
2022-08-07T00:54:41.505Z,61.65
2022-08-07T00:56:00.340Z,61.34
2022-08-07T00:56:40.630Z,60.83
2022-08-07T00:57:44.447Z,60.74
2022-08-07T00:58:40.797Z,61.04
2022-08-07T00:59:39.899Z,61.75
2022-08-07T01:00:39.065Z,61.75
2022-08-07T01:01:44.092Z,61.85
2022-08-07T01:02:39.728Z,62.05
2022-08-07T01:03:55.546Z,62.56
2022-08-07T01:04:43.453Z,62.49
2022-08-07T01:05:39.426Z,62.90
2022-08-07T01:06:40.472Z,63.20
2022-08-07T01:07:39.522Z,63.10
2022-08-07T01:08:51.262Z,63.00
2022-08-07T01:10:07.211Z,63.20
2022-08-07T01:10:40.781Z,62.90
2022-08-07T01:12:27.804Z,62.59
2022-08-07T01:12:39.837Z,62.18
2022-08-07T01:13:39.894Z,62.29
2022-08-07T01:14:39.957Z,62.59
2022-08-07T01:16:01.016Z,62.49
2022-08-07T01:16:42.941Z,62.70
2022-08-07T01:17:40.034Z,62.90
2022-08-07T01:18:39.262Z,63.00
2022-08-07T01:19:39.907Z,63.10
2022-08-07T01:20:43.151Z,63.40
2022-08-07T01:21:39.490Z,63.60
2022-08-07T01:22:46.833Z,63.02
2022-08-07T01:23:42.694Z,63.43
2022-08-07T01:24:40.658Z,63.02
2022-08-07T01:25:40.326Z,63.84
2022-08-07T01:26:42.066Z,63.94
2022-08-07T01:27:41.161Z,63.64
2022-08-07T01:28:39.929Z,64.04
2022-08-07T01:29:38.982Z,63.74
2022-08-07T01:30:39.077Z,63.64
2022-08-07T01:31:42.871Z,63.23
2022-08-07T01:32:40.768Z,63.13
2022-08-07T01:33:55.430Z,63.13
2022-08-07T01:34:40.414Z,63.33
2022-08-07T01:35:53.828Z,63.13
2022-08-07T01:36:40.592Z,63.13
2022-08-07T01:37:38.548Z,63.84
2022-08-07T01:38:38.663Z,63.74
2022-08-07T01:39:40.702Z,63.84
2022-08-07T01:40:39.752Z,64.28
2022-08-07T01:41:38.843Z,64.48
2022-08-07T01:42:58.819Z,64.28
2022-08-07T01:43:40.032Z,64.38
2022-08-07T01:44:39.101Z,64.18
2022-08-07T01:45:39.937Z,64.48
2022-08-07T01:46:39.275Z,64.58
2022-08-07T01:48:19.023Z,64.58
2022-08-07T01:48:41.142Z,64.89
2022-08-07T01:49:38.495Z,64.89
2022-08-07T01:50:43.200Z,64.89
2022-08-07T01:52:02.074Z,64.79
2022-08-07T01:52:39.695Z,65.39
2022-08-07T01:54:08.541Z,65.09
2022-08-07T01:54:39.921Z,64.89
2022-08-07T01:55:38.939Z,64.58
2022-08-07T01:56:39.029Z,63.46
2022-08-07T01:58:05.691Z,63.57
2022-08-07T01:58:41.073Z,64.48
2022-08-07T01:59:42.186Z,64.89
2022-08-07T02:00:38.832Z,65.02
2022-08-07T02:02:00.014Z,64.92
2022-08-07T02:03:18.299Z,65.33
2022-08-07T02:03:48.925Z,65.73
2022-08-07T02:04:39.618Z,66.04
2022-08-07T02:05:48.072Z,65.53
2022-08-07T02:06:39.756Z,65.02
2022-08-07T02:07:50.013Z,65.83
2022-08-07T02:08:39.883Z,66.17
2022-08-07T02:09:52.773Z,66.27
2022-08-07T02:10:42.113Z,65.97
2022-08-07T02:12:04.170Z,65.86
2022-08-07T02:12:39.138Z,66.20
2022-08-07T02:13:57.713Z,66.30
2022-08-07T02:14:40.827Z,66.00
2022-08-07T02:15:38.381Z,65.86
2022-08-07T02:16:38.597Z,66.07
2022-08-07T02:17:38.528Z,66.07
2022-08-07T02:18:38.613Z,65.97
2022-08-07T02:20:07.470Z,65.66
2022-08-07T02:20:39.760Z,65.86
2022-08-07T02:21:55.879Z,65.66
2022-08-07T02:22:41.498Z,65.56
2022-08-07T02:23:37.994Z,65.46
2022-08-07T02:24:38.079Z,65.86
2022-08-07T02:26:26.721Z,66.27
2022-08-07T02:26:44.459Z,66.14
2022-08-07T02:27:41.121Z,65.94
2022-08-07T02:28:38.397Z,65.53
2022-08-07T02:29:48.899Z,65.63
2022-08-07T02:30:39.565Z,66.04
2022-08-07T02:31:38.660Z,66.58
2022-08-07T02:33:00.124Z,66.68
2022-08-07T02:33:57.310Z,66.17
2022-08-07T02:34:38.852Z,66.78
2022-08-07T02:36:29.500Z,67.19
2022-08-07T02:36:39.013Z,67.12
2022-08-07T02:37:38.091Z,66.61
2022-08-07T02:38:39.147Z,67.02
2022-08-07T02:39:43.383Z,67.63
2022-08-07T02:40:39.329Z,66.91
2022-08-07T02:41:38.342Z,66.71
2022-08-07T02:42:38.587Z,66.61
2022-08-07T02:43:39.733Z,67.25
2022-08-07T02:44:38.551Z,67.76
2022-08-07T02:45:58.028Z,67.73
2022-08-07T02:46:38.685Z,67.35
2022-08-07T02:47:45.070Z,67.15
2022-08-07T02:48:38.851Z,67.32
2022-08-07T02:49:56.497Z,67.22
2022-08-07T02:50:39.072Z,67.63
2022-08-07T02:51:49.533Z,67.22
2022-08-07T02:52:38.896Z,66.91
2022-08-07T02:53:38.457Z,66.82
2022-08-07T02:54:38.085Z,66.50
2022-08-07T02:56:03.291Z,66.71
2022-08-07T02:56:39.292Z,66.41
2022-08-07T02:57:38.402Z,66.41
2022-08-07T02:58:39.712Z,66.50
2022-08-07T02:59:38.579Z,66.71
2022-08-07T03:00:39.179Z,66.71
2022-08-07T03:01:40.270Z,66.41
2022-08-07T03:02:37.884Z,66.50
2022-08-07T03:03:49.964Z,66.61
2022-08-07T03:04:39.089Z,66.41
2022-08-07T03:05:38.190Z,66.50
2022-08-07T03:06:38.752Z,66.61
2022-08-07T03:07:58.859Z,66.20
2022-08-07T03:08:38.406Z,66.91
2022-08-07T03:09:43.628Z,66.91
2022-08-07T03:10:41.042Z,66.61
2022-08-07T03:11:51.700Z,67.52
2022-08-07T03:12:38.761Z,67.43
2022-08-07T03:13:38.669Z,67.32
2022-08-07T03:14:37.967Z,67.02
2022-08-07T03:15:54.099Z,67.63
2022-08-07T03:16:38.460Z,67.83
2022-08-07T03:17:53.932Z,67.55
2022-08-07T03:18:38.328Z,67.46
2022-08-07T03:19:37.618Z,67.55
2022-08-07T03:20:37.628Z,67.96
2022-08-07T03:21:37.668Z,68.20
2022-08-07T03:22:38.780Z,68.81
2022-08-07T03:24:19.662Z,68.40
2022-08-07T03:24:39.008Z,68.81
2022-08-07T03:25:40.357Z,68.40
2022-08-07T03:26:51.314Z,68.95
2022-08-07T03:27:58.719Z,69.15
2022-08-07T03:28:39.595Z,69.25
2022-08-07T03:29:37.749Z,69.25
2022-08-07T03:30:37.660Z,69.66
2022-08-07T03:31:42.549Z,69.38
2022-08-07T03:32:38.901Z,70.00
2022-08-07T03:33:40.192Z,70.00
2022-08-07T03:34:39.168Z,70.31
2022-08-07T03:35:43.384Z,70.20
2022-08-07T03:36:38.307Z,70.72
2022-08-07T03:37:46.463Z,70.51
2022-08-07T03:38:38.507Z,70.75
2022-08-07T03:39:58.984Z,71.26
2022-08-07T03:40:38.789Z,71.36
2022-08-07T03:41:42.288Z,71.46
2022-08-07T03:42:37.981Z,71.46
2022-08-07T03:43:37.069Z,71.67
2022-08-07T03:44:37.170Z,71.80
2022-08-07T03:45:39.617Z,71.87
2022-08-07T03:47:11.031Z,71.39
2022-08-07T03:47:45.181Z,71.70
2022-08-07T03:49:01.907Z,71.80
2022-08-07T03:49:38.740Z,72.31
2022-08-07T03:50:36.803Z,72.31
2022-08-07T03:51:47.389Z,71.91
2022-08-07T03:52:37.981Z,72.21
2022-08-07T03:54:05.772Z,72.52
2022-08-07T03:54:55.159Z,72.11
2022-08-07T03:55:46.072Z,72.41
2022-08-07T03:56:38.381Z,72.52
2022-08-07T03:58:33.841Z,72.86
2022-08-07T03:59:08.678Z,73.06
2022-08-07T03:59:37.611Z,72.96
2022-08-07T04:00:37.760Z,73.03
2022-08-07T04:01:37.858Z,73.03
2022-08-07T04:02:41.119Z,72.82
2022-08-07T04:03:49.734Z,72.52
2022-08-07T04:04:38.100Z,73.03
2022-08-07T04:05:39.652Z,73.03
2022-08-07T04:06:38.711Z,73.03
2022-08-07T04:07:42.605Z,72.65
2022-08-07T04:08:37.452Z,72.86
2022-08-07T04:09:45.218Z,73.27
2022-08-07T04:10:38.820Z,73.16
2022-08-07T04:12:15.586Z,73.27
2022-08-07T04:12:38.924Z,72.65
2022-08-07T04:14:10.942Z,72.55
2022-08-07T04:14:45.855Z,73.16
2022-08-07T04:15:38.150Z,73.27
2022-08-07T04:16:37.251Z,72.96
2022-08-07T04:18:31.917Z,73.03
2022-08-07T04:18:59.546Z,72.82
2022-08-07T04:19:51.903Z,72.92
2022-08-07T04:20:37.606Z,73.33
2022-08-07T04:21:37.894Z,73.64
2022-08-07T04:22:53.706Z,73.74
2022-08-07T04:23:43.973Z,73.54
2022-08-07T04:25:08.905Z,73.23
2022-08-07T04:25:39.289Z,73.23
2022-08-07T04:26:36.239Z,73.13
2022-08-07T04:27:43.977Z,73.16
2022-08-07T04:28:37.473Z,73.68
2022-08-07T04:29:48.764Z,73.88
2022-08-07T04:30:55.331Z,74.29
2022-08-07T04:32:02.149Z,74.59
2022-08-07T04:32:37.922Z,74.29
2022-08-07T04:33:37.013Z,73.88
2022-08-07T04:34:39.520Z,73.68
2022-08-07T04:35:36.169Z,73.88
2022-08-07T04:36:36.274Z,74.39
2022-08-07T04:37:52.882Z,74.39
2022-08-07T04:38:37.561Z,74.69
2022-08-07T04:39:36.681Z,74.59
2022-08-07T04:40:43.852Z,74.39
2022-08-07T04:41:37.775Z,74.49
2022-08-07T04:42:36.856Z,73.98
2022-08-07T04:44:11.994Z,74.11
2022-08-07T04:44:37.036Z,74.32
2022-08-07T04:45:57.269Z,74.39
2022-08-07T04:46:59.524Z,74.39
2022-08-07T04:48:02.821Z,74.69
2022-08-07T04:48:37.436Z,75.00
2022-08-07T04:49:38.398Z,75.00
2022-08-07T04:50:36.995Z,74.49
2022-08-07T04:51:37.643Z,74.08
2022-08-07T04:52:36.765Z,74.29
2022-08-07T04:54:01.162Z,74.39
2022-08-07T04:54:36.990Z,74.49
2022-08-07T04:58:09.807Z,74.49
2022-08-07T04:58:10.351Z,75.10
2022-08-07T04:58:16.094Z,74.29
2022-08-07T04:59:07.681Z,75.07
2022-08-07T05:00:12.874Z,74.97
2022-08-07T05:00:37.616Z,75.27
2022-08-07T05:01:36.707Z,75.07
2022-08-07T05:02:36.696Z,74.66
2022-08-07T05:04:00.234Z,74.25
2022-08-07T05:04:36.797Z,73.94
2022-08-07T05:05:54.553Z,73.84
2022-08-07T05:06:43.179Z,73.84
2022-08-07T05:07:48.627Z,73.84
2022-08-07T05:08:58.864Z,74.42
2022-08-07T05:09:46.369Z,74.32
2022-08-07T05:10:37.433Z,73.81
2022-08-07T05:11:57.422Z,73.27
2022-08-07T05:12:37.639Z,73.36
2022-08-07T05:14:53.516Z,73.36
2022-08-07T05:14:54.377Z,73.36
2022-08-07T05:15:36.877Z,73.47
2022-08-07T05:16:35.970Z,73.57
2022-08-07T05:17:52.578Z,72.92
2022-08-07T05:18:37.191Z,72.41
2022-08-07T05:19:44.922Z,72.72
2022-08-07T05:20:37.348Z,72.62
2022-08-07T05:21:59.942Z,72.58
2022-08-07T05:22:37.518Z,73.19
2022-08-07T05:23:35.757Z,73.81
2022-08-07T05:24:40.653Z,73.81
2022-08-07T05:26:10.490Z,73.30
2022-08-07T05:26:37.899Z,73.60
2022-08-07T05:28:02.793Z,74.21
2022-08-07T05:28:37.079Z,74.32
2022-08-07T05:29:48.029Z,74.73
2022-08-07T05:30:37.305Z,74.62
2022-08-07T05:31:37.918Z,75.03
2022-08-07T05:32:35.463Z,74.73
2022-08-07T05:33:36.888Z,73.30
2022-08-07T05:34:35.645Z,73.91
2022-08-07T05:35:41.938Z,73.97
2022-08-07T05:36:36.839Z,73.91
2022-08-07T05:37:40.773Z,73.77
2022-08-07T05:39:00.168Z,73.77
2022-08-07T05:40:06.439Z,73.88
2022-08-07T05:40:37.283Z,74.18
2022-08-07T05:42:02.786Z,74.49
2022-08-07T05:42:37.052Z,74.38
2022-08-07T05:43:43.363Z,74.28
2022-08-07T05:44:36.479Z,73.06
2022-08-07T05:45:47.455Z,71.80
2022-08-07T05:46:36.661Z,70.17
2022-08-07T05:47:37.873Z,70.07
2022-08-07T05:48:36.785Z,70.48
2022-08-07T05:49:40.794Z,70.78
2022-08-07T05:50:35.956Z,70.99
2022-08-07T05:51:40.062Z,71.16
2022-08-07T05:52:36.169Z,71.47
2022-08-07T05:54:12.983Z,71.56
2022-08-07T05:54:53.314Z,71.26
2022-08-07T05:56:01.949Z,71.56
2022-08-07T05:56:36.397Z,71.97
2022-08-07T05:57:38.038Z,72.14
2022-08-07T05:58:37.423Z,72.34
2022-08-07T05:59:47.269Z,72.04
2022-08-07T06:00:36.724Z,71.94
2022-08-07T06:01:36.155Z,71.94
2022-08-07T06:02:35.851Z,71.94
2022-08-07T06:03:53.287Z,71.91
2022-08-07T06:04:35.985Z,72.11
2022-08-07T06:05:35.026Z,72.11
2022-08-07T06:06:35.098Z,72.21
2022-08-07T06:08:13.747Z,72.11
2022-08-07T06:08:40.622Z,72.11
2022-08-07T06:10:04.400Z,72.11
2022-08-07T06:10:36.396Z,71.97
2022-08-07T06:11:35.484Z,71.87
2022-08-07T06:12:35.706Z,71.47
2022-08-07T06:14:12.077Z,71.16
2022-08-07T06:14:36.718Z,71.57
2022-08-07T06:15:42.392Z,71.16
2022-08-07T06:16:35.872Z,70.96
2022-08-07T06:17:37.358Z,70.25
2022-08-07T06:18:35.914Z,70.14
2022-08-07T06:19:51.921Z,70.04
2022-08-07T06:20:51.074Z,69.74
2022-08-07T06:22:16.134Z,69.33
2022-08-07T06:22:40.136Z,68.89
2022-08-07T06:24:38.625Z,69.20
2022-08-07T06:24:45.541Z,69.50
2022-08-07T06:25:36.533Z,69.50
2022-08-07T06:26:35.698Z,69.60
2022-08-07T06:27:43.990Z,68.99
2022-08-07T06:28:35.689Z,68.89
2022-08-07T06:29:34.862Z,69.20
2022-08-07T06:30:37.378Z,69.26
2022-08-07T06:31:47.345Z,69.26
2022-08-07T06:32:35.967Z,69.17
2022-08-07T06:33:35.027Z,69.06
2022-08-07T06:34:36.067Z,69.37
2022-08-07T06:35:45.518Z,68.96
2022-08-07T06:36:36.292Z,69.06
2022-08-07T06:37:43.538Z,69.47
2022-08-07T06:38:36.435Z,70.28
2022-08-07T06:40:17.507Z,70.68
2022-08-07T06:40:35.650Z,70.96
2022-08-07T06:42:01.895Z,70.38
2022-08-07T06:42:35.763Z,71.06
2022-08-07T06:43:39.255Z,70.65
2022-08-07T06:44:36.641Z,69.95
2022-08-07T06:45:35.636Z,69.43
2022-08-07T06:46:35.617Z,69.34
2022-08-07T06:47:38.708Z,69.43
2022-08-07T06:48:36.251Z,68.52
2022-08-07T06:49:35.275Z,67.50
2022-08-07T06:50:36.330Z,68.08
2022-08-07T06:51:35.308Z,67.27
2022-08-07T06:52:36.598Z,66.77
2022-08-07T06:55:28.412Z,66.56
2022-08-07T06:55:33.208Z,66.77
2022-08-07T06:55:52.651Z,66.66
2022-08-07T06:56:35.802Z,66.02
2022-08-07T06:57:43.717Z,65.42
2022-08-07T06:58:35.961Z,65.42
2022-08-07T07:00:12.029Z,65.42
2022-08-07T07:00:36.162Z,65.11
2022-08-07T07:01:43.791Z,64.81
2022-08-07T07:02:48.475Z,64.37
2022-08-07T07:03:47.912Z,64.07
2022-08-07T07:04:35.352Z,63.76
2022-08-07T07:06:04.074Z,64.17
2022-08-07T07:06:39.443Z,64.47
2022-08-07T07:07:59.244Z,64.47
2022-08-07T07:08:35.681Z,64.07
2022-08-07T07:09:36.255Z,63.63
2022-08-07T07:10:34.745Z,63.63
2022-08-07T07:12:08.496Z,63.73
2022-08-07T07:12:35.925Z,63.73
2022-08-07T07:13:55.872Z,63.63
2022-08-07T07:14:37.492Z,63.90
2022-08-07T07:15:36.132Z,63.70
2022-08-07T07:16:34.091Z,62.59
2022-08-07T07:17:39.138Z,61.37
2022-08-07T07:18:47.214Z,61.78
2022-08-07T07:19:57.571Z,62.49
2022-08-07T07:20:35.847Z,63.17
2022-08-07T07:22:04.226Z,62.46
2022-08-07T07:22:39.837Z,62.76
2022-08-07T07:24:10.843Z,62.96
2022-08-07T07:24:37.584Z,62.96
2022-08-07T07:26:34.427Z,62.56
2022-08-07T07:26:37.168Z,62.15
2022-08-07T07:27:35.561Z,62.46
2022-08-07T07:29:22.701Z,62.05
2022-08-07T07:29:39.573Z,61.55
2022-08-07T07:30:38.475Z,61.95
2022-08-07T07:31:39.961Z,62.02
2022-08-07T07:32:35.013Z,62.23
2022-08-07T07:33:34.071Z,62.12
2022-08-07T07:34:34.106Z,61.72
2022-08-07T07:35:43.739Z,60.91
2022-08-07T07:36:35.249Z,61.41
2022-08-07T07:37:49.604Z,61.79
2022-08-07T07:38:36.028Z,61.59
2022-08-07T07:39:35.822Z,62.70
2022-08-07T07:40:35.529Z,62.70
2022-08-07T07:41:50.450Z,61.99
2022-08-07T07:42:35.614Z,62.47
2022-08-07T07:43:47.842Z,61.96
2022-08-07T07:44:34.681Z,61.96
2022-08-07T07:46:37.565Z,61.96
2022-08-07T07:46:37.922Z,61.96
2022-08-07T07:47:52.198Z,61.33
2022-08-07T07:48:36.244Z,61.43
2022-08-07T07:50:34.944Z,60.82
2022-08-07T07:50:40.070Z,59.31
2022-08-07T07:51:58.558Z,59.21
2022-08-07T07:52:35.182Z,59.31
2022-08-07T07:53:34.793Z,59.71
2022-08-07T07:54:34.319Z,59.99
2022-08-07T07:55:37.080Z,59.48
2022-08-07T07:56:34.429Z,59.69
2022-08-07T07:57:53.316Z,60.16
2022-08-07T07:58:40.368Z,59.45
2022-08-07T07:59:52.062Z,58.95
2022-08-07T08:00:34.595Z,59.25
2022-08-07T08:02:03.857Z,58.54
2022-08-07T08:02:35.321Z,58.34
2022-08-07T08:04:10.201Z,58.54
2022-08-07T08:04:34.833Z,58.34
2022-08-07T08:05:54.207Z,59.45
2022-08-07T08:06:34.887Z,59.15
2022-08-07T08:07:35.745Z,59.93
2022-08-07T08:08:36.884Z,59.73
2022-08-07T08:09:52.106Z,59.63
2022-08-07T08:10:38.241Z,59.73
2022-08-07T08:11:59.951Z,59.53
2022-08-07T08:12:58.818Z,60.31
2022-08-07T08:13:43.793Z,60.51
2022-08-07T08:14:36.348Z,60.10
2022-08-07T08:15:57.641Z,59.80
2022-08-07T08:16:35.113Z,57.28
2022-08-07T08:18:34.627Z,58.67
2022-08-07T08:18:36.864Z,57.18
2022-08-07T08:20:16.942Z,58.87
2022-08-07T08:20:34.716Z,58.26
2022-08-07T08:22:02.699Z,57.53
2022-08-07T08:22:34.841Z,57.73
2022-08-07T08:23:34.814Z,57.93
2022-08-07T08:24:36.159Z,58.23
2022-08-07T08:25:43.034Z,58.84
2022-08-07T08:26:35.106Z,58.21
2022-08-07T08:27:33.633Z,57.00
2022-08-07T08:28:38.259Z,57.00
2022-08-07T08:29:34.260Z,57.60
2022-08-07T08:30:34.873Z,58.01
2022-08-07T08:32:17.042Z,57.37
2022-08-07T08:32:38.504Z,57.28
2022-08-07T08:33:33.479Z,56.97
2022-08-07T08:34:33.567Z,56.67
2022-08-07T08:35:39.378Z,56.74
2022-08-07T08:36:34.652Z,56.44
2022-08-07T08:38:00.651Z,56.14
2022-08-07T08:38:38.636Z,55.63
2022-08-07T08:39:39.272Z,55.11
2022-08-07T08:40:34.847Z,54.80
2022-08-07T08:41:58.440Z,55.11
2022-08-07T08:42:34.927Z,54.80
2022-08-07T08:43:42.978Z,55.61
2022-08-07T08:44:41.284Z,55.31
2022-08-07T08:45:41.849Z,54.98
2022-08-07T08:46:34.072Z,54.68
2022-08-07T08:47:34.367Z,53.27
2022-08-07T08:48:36.161Z,52.57
2022-08-07T08:49:46.389Z,53.77
2022-08-07T08:50:38.838Z,53.40
2022-08-07T08:51:49.392Z,53.00
2022-08-07T08:52:35.945Z,53.00
2022-08-07T08:53:34.344Z,54.20
2022-08-07T08:54:33.448Z,55.18
2022-08-07T08:55:54.482Z,54.17
2022-08-07T08:56:35.919Z,54.28
2022-08-07T08:57:33.977Z,53.95
2022-08-07T08:58:33.555Z,53.95
2022-08-07T08:59:42.391Z,53.32
2022-08-07T09:00:34.547Z,53.02
2022-08-07T09:01:40.121Z,52.92
2022-08-07T09:02:37.398Z,53.02
2022-08-07T09:03:47.437Z,52.32
2022-08-07T09:04:33.662Z,52.59
2022-08-07T09:05:37.775Z,52.69
2022-08-07T09:06:33.751Z,53.90
2022-08-07T09:07:34.199Z,52.49
2022-08-07T09:08:33.851Z,51.99
2022-08-07T09:09:36.514Z,51.99
2022-08-07T09:10:32.892Z,52.26
2022-08-07T09:11:50.591Z,53.07
2022-08-07T09:12:33.954Z,53.87
2022-08-07T09:13:37.044Z,53.57
2022-08-07T09:14:34.043Z,50.54
2022-08-07T09:16:23.931Z,50.74
2022-08-07T09:16:34.094Z,50.94
2022-08-07T09:17:33.934Z,51.54
2022-08-07T09:18:34.969Z,51.54
2022-08-07T09:19:51.504Z,52.04
2022-08-07T09:20:35.448Z,52.44
2022-08-07T09:21:57.857Z,52.04
2022-08-07T09:24:28.402Z,52.24
2022-08-07T09:24:31.403Z,48.63
2022-08-07T09:24:59.403Z,49.13
2022-08-07T09:25:33.385Z,49.54
2022-08-07T09:26:32.412Z,49.61
2022-08-07T09:27:54.713Z,49.21
2022-08-07T09:30:04.644Z,48.49
2022-08-07T09:30:05.876Z,48.38
2022-08-07T09:30:33.430Z,47.06
2022-08-07T09:31:33.669Z,47.26
2022-08-07T09:32:33.521Z,47.04
2022-08-07T09:33:53.163Z,46.14
2022-08-07T09:34:33.506Z,45.14
2022-08-07T09:36:04.300Z,45.12
2022-08-07T09:36:36.960Z,45.72
2022-08-07T09:37:47.743Z,45.72
2022-08-07T09:38:33.576Z,46.51
2022-08-07T09:39:53.739Z,45.74
2022-08-07T09:40:33.633Z,45.66
2022-08-07T09:41:36.201Z,46.66
2022-08-07T09:42:33.904Z,46.76
2022-08-07T09:43:40.363Z,46.56
2022-08-07T09:45:03.535Z,47.56
2022-08-07T09:47:23.903Z,48.46
2022-08-07T09:47:50.580Z,47.14
2022-08-07T09:47:56.118Z,46.84
2022-08-07T09:48:50.040Z,45.64
2022-08-07T09:50:02.723Z,45.31
2022-08-07T09:50:33.847Z,43.82
2022-08-07T09:52:16.614Z,44.51
2022-08-07T09:52:35.315Z,45.12
2022-08-07T09:53:40.896Z,44.42
2022-08-07T09:54:33.926Z,45.31
2022-08-07T09:56:02.692Z,44.09
2022-08-07T09:56:39.275Z,44.29
2022-08-07T09:57:32.896Z,43.79
2022-08-07T09:58:32.810Z,43.87
2022-08-07T09:59:44.358Z,44.67
2022-08-07T10:00:32.897Z,44.15
2022-08-07T10:01:52.630Z,41.46
2022-08-07T10:02:32.901Z,42.46
2022-08-07T10:04:05.661Z,44.03
2022-08-07T10:04:33.473Z,43.33
2022-08-07T10:05:59.566Z,43.73
2022-08-07T10:06:33.049Z,43.63
2022-08-07T10:07:32.032Z,43.43
2022-08-07T10:08:33.067Z,43.93
2022-08-07T10:09:42.621Z,41.74
2022-08-07T10:10:53.845Z,42.83
2022-08-07T10:12:02.693Z,42.83
2022-08-07T10:12:33.106Z,43.41
2022-08-07T10:14:00.484Z,43.51
2022-08-07T10:14:33.169Z,41.71
2022-08-07T10:15:37.777Z,42.83
2022-08-07T10:16:33.210Z,41.31
2022-08-07T10:18:02.746Z,42.21
2022-08-07T10:18:33.305Z,42.51
2022-08-07T10:19:32.283Z,43.29
2022-08-07T10:20:33.282Z,43.19
2022-08-07T10:22:14.089Z,42.27
2022-08-07T10:22:36.780Z,42.27
2022-08-07T10:24:05.506Z,41.08
2022-08-07T10:24:39.683Z,40.68
2022-08-07T10:25:42.536Z,40.28
2022-08-07T10:26:33.373Z,40.18
2022-08-07T10:27:46.461Z,41.17
2022-08-07T10:28:33.405Z,42.18
2022-08-07T10:29:32.417Z,42.07
2022-08-07T10:30:32.442Z,40.58
2022-08-07T10:31:38.510Z,40.88
2022-08-07T10:32:36.847Z,41.47
2022-08-07T10:34:06.969Z,41.97
2022-08-07T10:34:33.409Z,42.25
2022-08-07T10:35:56.059Z,41.85
2022-08-07T10:36:36.263Z,41.25
2022-08-07T10:38:00.081Z,41.74
2022-08-07T10:38:42.259Z,40.84
2022-08-07T10:39:42.144Z,40.44
2022-08-07T10:40:32.529Z,38.54
2022-08-07T10:41:46.242Z,41.74
2022-08-07T10:42:36.665Z,40.74
2022-08-07T10:43:34.799Z,41.24
2022-08-07T10:44:38.296Z,40.34
2022-08-07T10:45:44.599Z,39.44
2022-08-07T10:46:32.543Z,39.76
2022-08-07T10:47:50.664Z,39.76
2022-08-07T10:48:34.837Z,39.98
2022-08-07T10:49:49.784Z,40.18
2022-08-07T10:50:32.565Z,39.70
2022-08-07T10:51:57.538Z,40.80
2022-08-07T10:52:33.909Z,41.19
2022-08-07T10:53:44.247Z,41.30
2022-08-07T10:54:32.658Z,41.80
2022-08-07T10:55:37.921Z,42.27
2022-08-07T10:56:32.691Z,40.68
2022-08-07T10:57:34.454Z,40.36
2022-08-07T10:58:33.111Z,39.26
2022-08-07T10:59:31.913Z,39.76
2022-08-07T11:00:36.779Z,39.88
2022-08-07T11:01:35.328Z,41.17
2022-08-07T11:02:34.348Z,39.68
2022-08-07T11:03:37.452Z,41.47
2022-08-07T11:04:37.511Z,41.38
2022-08-07T11:05:35.749Z,41.55
2022-08-07T11:06:32.917Z,41.33
2022-08-07T11:07:59.704Z,39.53
2022-08-07T11:08:32.924Z,40.10
2022-08-07T11:10:08.773Z,40.20
2022-08-07T11:10:32.885Z,39.78
2022-08-07T11:11:35.637Z,39.89
2022-08-07T11:12:35.328Z,38.97
2022-08-07T11:14:44.810Z,39.35
2022-08-07T11:14:46.242Z,39.57
2022-08-07T11:15:32.309Z,38.65
2022-08-07T11:16:30.997Z,38.16
2022-08-07T11:17:43.344Z,37.06
2022-08-07T11:18:32.043Z,37.38
2022-08-07T11:19:31.031Z,37.90
2022-08-07T11:20:31.014Z,37.70
2022-08-07T11:21:32.085Z,37.32
2022-08-07T11:22:37.019Z,37.62
2022-08-07T11:23:38.444Z,38.03
2022-08-07T11:24:32.038Z,39.83
2022-08-07T11:25:31.023Z,39.31
2022-08-07T11:26:32.108Z,37.81
2022-08-07T11:28:00.904Z,38.13
2022-08-07T11:28:32.062Z,41.09
2022-08-07T11:29:41.819Z,39.89
2022-08-07T11:30:42.004Z,37.79
2022-08-07T11:31:34.869Z,38.49
2022-08-07T11:32:31.124Z,37.90
2022-08-07T11:33:31.153Z,38.18
2022-08-07T11:34:32.149Z,38.18
2022-08-07T11:35:31.157Z,37.28
2022-08-07T11:36:31.298Z,36.98
2022-08-07T11:37:38.546Z,39.17
2022-08-07T11:38:32.178Z,38.75
2022-08-07T11:39:59.057Z,38.43
2022-08-07T11:40:32.282Z,36.94
2022-08-07T11:42:01.596Z,38.24
2022-08-07T11:42:32.239Z,37.32
2022-08-07T11:43:54.920Z,36.23
2022-08-07T11:44:32.230Z,36.53
2022-08-07T11:45:36.068Z,35.44
2022-08-07T11:46:32.230Z,36.04
2022-08-07T11:47:38.670Z,36.04
2022-08-07T11:48:32.223Z,36.33
2022-08-07T11:50:18.544Z,38.02
2022-08-07T11:50:33.461Z,36.41
2022-08-07T11:51:41.464Z,34.73
2022-08-07T11:52:37.525Z,35.42
2022-08-07T11:53:35.239Z,36.13
2022-08-07T11:54:31.300Z,36.15
2022-08-07T11:56:25.274Z,35.75
2022-08-07T11:56:34.290Z,38.16
2022-08-07T11:58:00.467Z,36.57
2022-08-07T11:58:33.370Z,36.36
2022-08-07T12:00:10.576Z,36.87
2022-08-07T12:00:31.365Z,36.47
2022-08-07T12:01:59.275Z,37.36
2022-08-07T12:02:32.936Z,37.24
2022-08-07T12:03:44.283Z,36.63
2022-08-07T12:04:31.455Z,35.24
2022-08-07T12:05:47.438Z,37.03
2022-08-07T12:06:39.027Z,37.03
2022-08-07T12:07:39.089Z,35.92
2022-08-07T12:08:35.067Z,35.82
2022-08-07T12:09:31.650Z,35.11
2022-08-07T12:10:30.634Z,34.71
2022-08-07T12:11:32.185Z,36.41
2022-08-07T12:12:30.625Z,35.44
2022-08-07T12:13:37.141Z,36.05
2022-08-07T12:14:31.635Z,37.34
2022-08-07T12:15:46.454Z,39.11
2022-08-07T12:16:31.710Z,37.81
2022-08-07T12:17:33.574Z,35.90
2022-08-07T12:18:30.731Z,36.18
2022-08-07T12:19:35.677Z,34.80
2022-08-07T12:20:32.558Z,35.77
2022-08-07T12:21:55.693Z,34.68
2022-08-07T12:22:37.425Z,35.07
2022-08-07T12:24:06.047Z,34.68
2022-08-07T12:24:37.775Z,35.57
2022-08-07T12:26:03.422Z,34.88
2022-08-07T12:26:40.552Z,33.59
2022-08-07T12:28:05.777Z,33.59
2022-08-07T12:28:31.808Z,33.98
2022-08-07T12:29:38.016Z,34.28
2022-08-07T12:30:31.831Z,35.27
2022-08-07T12:31:52.972Z,35.67
2022-08-07T12:32:33.815Z,35.47
2022-08-07T12:34:00.603Z,33.89
2022-08-07T12:34:31.861Z,34.36
2022-08-07T12:35:30.871Z,34.76
2022-08-07T12:36:33.287Z,33.57
2022-08-07T12:38:09.509Z,33.95
2022-08-07T12:38:42.701Z,34.43
2022-08-07T12:39:42.263Z,33.54
2022-08-07T12:40:47.348Z,33.73
2022-08-07T12:41:49.818Z,34.31
2022-08-07T12:42:32.200Z,34.01
2022-08-07T12:44:01.994Z,33.21
2022-08-07T12:44:30.861Z,33.61
2022-08-07T12:45:29.833Z,32.43
2022-08-07T12:46:32.555Z,33.45
2022-08-07T12:47:30.769Z,34.05
2022-08-07T12:48:51.847Z,35.53
2022-08-07T12:49:48.494Z,33.75
2022-08-07T12:50:39.346Z,34.56
2022-08-07T12:51:46.692Z,34.06
2022-08-07T12:52:34.037Z,35.34